sensor_id;sensor_type;location;lat;lon;timestamp;temperature;humidity
13713;DHT22;6928;50.546;7.120;2024-02-26T06:06:22;6.53;89.28
13713;DHT22;6928;50.546;7.120;2024-02-26T06:08:49;6.56;89.44
13713;DHT22;6928;50.546;7.120;2024-02-26T06:11:16;6.57;89.14
13713;DHT22;6928;50.546;7.120;2024-02-26T06:13:43;6.57;89.55
13713;DHT22;6928;50.546;7.120;2024-02-26T06:16:09;6.53;89.90
13713;DHT22;6928;50.546;7.120;2024-02-26T06:18:36;6.62;89.54
13713;DHT22;6928;50.546;7.120;2024-02-26T06:21:03;6.56;89.83
13713;DHT22;6928;50.546;7.120;2024-02-26T06:23:31;6.43;90.22
13713;DHT22;6928;50.546;7.120;2024-02-26T06:25:58;6.56;90.07
13713;DHT22;6928;50.546;7.120;2024-02-26T06:28:25;6.57;89.91
13713;DHT22;6928;50.546;7.120;2024-02-26T06:30:52;6.50;89.67
13713;DHT22;6928;50.546;7.120;2024-02-26T06:33:18;6.53;89.84
13713;DHT22;6928;50.546;7.120;2024-02-26T06:35:45;6.56;89.68
13713;DHT22;6928;50.546;7.120;2024-02-26T06:38:12;6.55;90.04
13713;DHT22;6928;50.546;7.120;2024-02-26T06:40:40;6.61;89.67
13713;DHT22;6928;50.546;7.120;2024-02-26T06:43:07;6.59;89.82
13713;DHT22;6928;50.546;7.120;2024-02-26T06:45:34;6.56;90.30
13713;DHT22;6928;50.546;7.120;2024-02-26T06:48:00;6.59;89.88
13713;DHT22;6928;50.546;7.120;2024-02-26T06:50:28;6.50;90.24
13713;DHT22;6928;50.546;7.120;2024-02-26T06:52:54;6.57;90.20
13713;DHT22;6928;50.546;7.120;2024-02-26T06:55:21;6.59;90.00
13713;DHT22;6928;50.546;7.120;2024-02-26T06:57:49;6.59;90.02
13713;DHT22;6928;50.546;7.120;2024-02-26T07:00:17;6.46;90.00
13713;DHT22;6928;50.546;7.120;2024-02-26T07:02:43;6.52;89.69
13713;DHT22;6928;50.546;7.120;2024-02-26T07:05:10;6.55;89.64
13713;DHT22;6928;50.546;7.120;2024-02-26T07:07:38;6.45;89.97
13713;DHT22;6928;50.546;7.120;2024-02-26T07:10:05;6.53;89.74
13713;DHT22;6928;50.546;7.120;2024-02-26T07:12:32;6.56;89.86
13713;DHT22;6928;50.546;7.120;2024-02-26T07:15:00;6.63;89.35
13713;DHT22;6928;50.546;7.120;2024-02-26T07:17:28;6.62;89.56
13713;DHT22;6928;50.546;7.120;2024-02-26T07:19:54;6.55;90.37
13713;DHT22;6928;50.546;7.120;2024-02-26T07:22:21;6.46;90.11
13713;DHT22;6928;50.546;7.120;2024-02-26T07:24:49;6.61;89.95
13713;DHT22;6928;50.546;7.120;2024-02-26T07:27:16;6.48;90.68
13713;DHT22;6928;50.546;7.120;2024-02-26T07:29:43;6.43;90.45
13713;DHT22;6928;50.546;7.120;2024-02-26T07:32:11;6.53;90.27
13713;DHT22;6928;50.546;7.120;2024-02-26T07:34:38;6.48;90.01
13713;DHT22;6928;50.546;7.120;2024-02-26T07:37:07;6.42;90.24
13713;DHT22;6928;50.546;7.120;2024-02-26T07:39:34;6.42;90.27
13713;DHT22;6928;50.546;7.120;2024-02-26T07:42:00;6.39;90.44
13713;DHT22;6928;50.546;7.120;2024-02-26T07:44:27;6.48;89.57
13713;DHT22;6928;50.546;7.120;2024-02-26T07:46:54;6.43;90.57
13713;DHT22;6928;50.546;7.120;2024-02-26T07:49:22;6.46;90.15
13713;DHT22;6928;50.546;7.120;2024-02-26T07:51:49;6.53;90.07
13713;DHT22;6928;50.546;7.120;2024-02-26T07:54:16;6.41;90.77
13713;DHT22;6928;50.546;7.120;2024-02-26T07:56:44;6.61;90.74
13713;DHT22;6928;50.546;7.120;2024-02-26T07:59:11;6.59;90.79
13713;DHT22;6928;50.546;7.120;2024-02-26T08:01:38;6.68;90.27
13713;DHT22;6928;50.546;7.120;2024-02-26T08:04:06;6.63;90.35
13713;DHT22;6928;50.546;7.120;2024-02-26T08:06:35;6.43;91.26
13713;DHT22;6928;50.546;7.120;2024-02-26T08:09:01;6.52;90.83
13713;DHT22;6928;50.546;7.120;2024-02-26T08:11:29;6.49;91.40
13713;DHT22;6928;50.546;7.120;2024-02-26T08:13:56;6.61;90.76
13713;DHT22;6928;50.546;7.120;2024-02-26T08:16:24;6.65;90.60
13713;DHT22;6928;50.546;7.120;2024-02-26T08:18:51;6.68;90.59
13713;DHT22;6928;50.546;7.120;2024-02-26T08:21:18;6.73;90.55
13713;DHT22;6928;50.546;7.120;2024-02-26T08:23:46;6.77;90.17
13713;DHT22;6928;50.546;7.120;2024-02-26T08:26:13;6.53;91.04
13713;DHT22;6928;50.546;7.120;2024-02-26T08:28:40;6.53;91.41
13713;DHT22;6928;50.546;7.120;2024-02-26T08:31:06;6.41;91.48
13713;DHT22;6928;50.546;7.120;2024-02-26T08:33:33;6.65;91.02
13713;DHT22;6928;50.546;7.120;2024-02-26T08:36:04;6.71;90.90
13713;DHT22;6928;50.546;7.120;2024-02-26T08:38:31;6.68;90.47
13713;DHT22;6928;50.546;7.120;2024-02-26T08:41:01;6.75;90.38
13713;DHT22;6928;50.546;7.120;2024-02-26T08:43:28;6.73;90.97
13713;DHT22;6928;50.546;7.120;2024-02-26T08:45:55;6.82;90.62
13713;DHT22;6928;50.546;7.120;2024-02-26T08:48:21;6.69;90.91
13713;DHT22;6928;50.546;7.120;2024-02-26T08:50:48;6.71;90.82
13713;DHT22;6928;50.546;7.120;2024-02-26T08:53:16;6.71;91.02
13713;DHT22;6928;50.546;7.120;2024-02-26T08:55:43;6.76;91.35
13713;DHT22;6928;50.546;7.120;2024-02-26T08:58:11;6.79;92.01
13713;DHT22;6928;50.546;7.120;2024-02-26T09:00:38;6.84;91.14
13713;DHT22;6928;50.546;7.120;2024-02-26T09:03:05;6.96;91.19
13713;DHT22;6928;50.546;7.120;2024-02-26T09:05:31;6.92;91.21
13713;DHT22;6928;50.546;7.120;2024-02-26T09:07:58;6.80;91.14
13713;DHT22;6928;50.546;7.120;2024-02-26T09:10:25;6.84;90.83
13713;DHT22;6928;50.546;7.120;2024-02-26T09:12:51;6.92;90.92
13713;DHT22;6928;50.546;7.120;2024-02-26T09:15:20;6.82;90.06
13713;DHT22;6928;50.546;7.120;2024-02-26T09:17:46;6.69;90.48
13713;DHT22;6928;50.546;7.120;2024-02-26T09:20:15;6.92;91.28
13713;DHT22;6928;50.546;7.120;2024-02-26T09:22:45;6.75;91.20
13713;DHT22;6928;50.546;7.120;2024-02-26T09:25:12;6.92;91.64
13713;DHT22;6928;50.546;7.120;2024-02-26T09:27:39;6.82;91.04
13713;DHT22;6928;50.546;7.120;2024-02-26T09:30:07;6.86;90.78
13713;DHT22;6928;50.546;7.120;2024-02-26T09:32:35;6.90;91.09
13713;DHT22;6928;50.546;7.120;2024-02-26T09:35:02;6.94;91.17
13713;DHT22;6928;50.546;7.120;2024-02-26T09:37:29;7.03;90.90
13713;DHT22;6928;50.546;7.120;2024-02-26T09:39:56;6.99;90.76
13713;DHT22;6928;50.546;7.120;2024-02-26T09:42:26;6.89;91.15
13713;DHT22;6928;50.546;7.120;2024-02-26T09:44:54;6.92;91.25
13713;DHT22;6928;50.546;7.120;2024-02-26T09:47:22;6.90;90.80
13713;DHT22;6928;50.546;7.120;2024-02-26T09:49:52;7.11;91.33
13713;DHT22;6928;50.546;7.120;2024-02-26T09:52:19;7.08;91.01
13713;DHT22;6928;50.546;7.120;2024-02-26T09:54:47;7.10;90.59
13713;DHT22;6928;50.546;7.120;2024-02-26T09:57:15;7.00;90.20
13713;DHT22;6928;50.546;7.120;2024-02-26T09:59:44;7.21;90.53
13713;DHT22;6928;50.546;7.120;2024-02-26T10:02:12;6.99;90.66
13713;DHT22;6928;50.546;7.120;2024-02-26T10:04:40;6.89;90.13
13713;DHT22;6928;50.546;7.120;2024-02-26T10:07:12;7.08;90.06
13713;DHT22;6928;50.546;7.120;2024-02-26T10:09:39;7.08;90.12
13713;DHT22;6928;50.546;7.120;2024-02-26T10:12:10;6.99;89.96
13713;DHT22;6928;50.546;7.120;2024-02-26T10:14:37;6.87;89.00
13713;DHT22;6928;50.546;7.120;2024-02-26T10:17:06;6.99;89.26
13713;DHT22;6928;50.546;7.120;2024-02-26T10:19:33;7.07;89.31
13713;DHT22;6928;50.546;7.120;2024-02-26T10:22:01;7.06;89.44
13713;DHT22;6928;50.546;7.120;2024-02-26T10:24:30;6.92;88.53
13713;DHT22;6928;50.546;7.120;2024-02-26T10:26:57;7.08;89.47
13713;DHT22;6928;50.546;7.120;2024-02-26T10:29:25;7.21;89.16
13713;DHT22;6928;50.546;7.120;2024-02-26T10:31:52;7.08;88.76
13713;DHT22;6928;50.546;7.120;2024-02-26T10:34:20;7.11;89.03
13713;DHT22;6928;50.546;7.120;2024-02-26T10:36:47;7.07;88.50
13713;DHT22;6928;50.546;7.120;2024-02-26T10:39:14;7.10;89.02
13713;DHT22;6928;50.546;7.120;2024-02-26T10:41:44;7.06;88.25
13713;DHT22;6928;50.546;7.120;2024-02-26T10:44:12;7.11;88.46
13713;DHT22;6928;50.546;7.120;2024-02-26T10:46:40;7.10;88.00
13713;DHT22;6928;50.546;7.120;2024-02-26T10:49:14;7.10;87.97
13713;DHT22;6928;50.546;7.120;2024-02-26T10:51:44;7.17;88.56
13713;DHT22;6928;50.546;7.120;2024-02-26T10:54:15;7.16;88.40
13713;DHT22;6928;50.546;7.120;2024-02-26T10:56:46;7.26;88.48
13713;DHT22;6928;50.546;7.120;2024-02-26T10:59:14;7.27;88.15
13713;DHT22;6928;50.546;7.120;2024-02-26T11:01:47;7.24;88.00
13713;DHT22;6928;50.546;7.120;2024-02-26T11:04:15;7.20;88.38
13713;DHT22;6928;50.546;7.120;2024-02-26T11:06:43;7.27;87.96
13713;DHT22;6928;50.546;7.120;2024-02-26T11:09:12;7.26;88.30
13713;DHT22;6928;50.546;7.120;2024-02-26T11:11:40;7.24;87.73
13713;DHT22;6928;50.546;7.120;2024-02-26T11:14:09;7.26;87.62
13713;DHT22;6928;50.546;7.120;2024-02-26T11:16:39;7.37;87.90
13713;DHT22;6928;50.546;7.120;2024-02-26T11:19:06;7.30;88.35
13713;DHT22;6928;50.546;7.120;2024-02-26T11:21:35;7.37;88.82
13713;DHT22;6928;50.546;7.120;2024-02-26T11:24:08;7.30;88.59
13713;DHT22;6928;50.546;7.120;2024-02-26T11:26:39;7.28;88.75
13713;DHT22;6928;50.546;7.120;2024-02-26T11:29:09;7.26;88.68
13713;DHT22;6928;50.546;7.120;2024-02-26T11:31:38;7.30;88.92
13713;DHT22;6928;50.546;7.120;2024-02-26T11:34:07;7.35;88.60
13713;DHT22;6928;50.546;7.120;2024-02-26T11:36:36;7.37;88.96
13713;DHT22;6928;50.546;7.120;2024-02-26T11:39:04;7.34;88.75
13713;DHT22;6928;50.546;7.120;2024-02-26T11:41:32;7.27;87.96
13713;DHT22;6928;50.546;7.120;2024-02-26T11:44:00;7.27;88.35
13713;DHT22;6928;50.546;7.120;2024-02-26T11:46:31;7.40;88.22
13713;DHT22;6928;50.546;7.120;2024-02-26T11:49:02;7.48;88.53
13713;DHT22;6928;50.546;7.120;2024-02-26T11:51:34;7.40;88.16
13713;DHT22;6928;50.546;7.120;2024-02-26T11:54:01;7.50;88.11
13713;DHT22;6928;50.546;7.120;2024-02-26T11:56:28;7.45;88.48
13713;DHT22;6928;50.546;7.120;2024-02-26T11:59:04;7.51;87.80
13713;DHT22;6928;50.546;7.120;2024-02-26T12:01:47;7.54;87.92
13713;DHT22;6928;50.546;7.120;2024-02-26T12:04:18;7.45;87.50
13713;DHT22;6928;50.546;7.120;2024-02-26T12:06:50;7.67;88.11
13713;DHT22;6928;50.546;7.120;2024-02-26T12:09:35;7.51;87.75
13713;DHT22;6928;50.546;7.120;2024-02-26T12:12:04;7.61;87.44
13713;DHT22;6928;50.546;7.120;2024-02-26T12:14:34;7.68;87.52
13713;DHT22;6928;50.546;7.120;2024-02-26T12:17:03;7.68;87.59
13713;DHT22;6928;50.546;7.120;2024-02-26T12:19:33;7.65;87.36
13713;DHT22;6928;50.546;7.120;2024-02-26T12:22:00;7.61;87.60
13713;DHT22;6928;50.546;7.120;2024-02-26T12:24:27;7.74;87.55
13713;DHT22;6928;50.546;7.120;2024-02-26T12:26:54;7.78;87.44
13713;DHT22;6928;50.546;7.120;2024-02-26T12:29:21;7.76;87.16
13713;DHT22;6928;50.546;7.120;2024-02-26T12:31:48;7.76;86.93
13713;DHT22;6928;50.546;7.120;2024-02-26T12:34:16;7.76;86.98
13713;DHT22;6928;50.546;7.120;2024-02-26T12:36:43;7.81;86.93
13713;DHT22;6928;50.546;7.120;2024-02-26T12:39:10;7.86;87.06
13713;DHT22;6928;50.546;7.120;2024-02-26T12:41:38;7.83;87.18
13713;DHT22;6928;50.546;7.120;2024-02-26T12:44:06;7.89;87.33
13713;DHT22;6928;50.546;7.120;2024-02-26T12:46:34;7.85;87.15
13713;DHT22;6928;50.546;7.120;2024-02-26T12:49:00;7.93;87.16
13713;DHT22;6928;50.546;7.120;2024-02-26T12:51:29;7.90;87.27
13713;DHT22;6928;50.546;7.120;2024-02-26T12:53:57;7.90;87.08
13713;DHT22;6928;50.546;7.120;2024-02-26T12:56:24;7.92;87.24
13713;DHT22;6928;50.546;7.120;2024-02-26T12:58:52;7.95;87.33
13713;DHT22;6928;50.546;7.120;2024-02-26T13:01:22;7.82;87.70
13713;DHT22;6928;50.546;7.120;2024-02-26T13:03:50;7.79;87.78
13713;DHT22;6928;50.546;7.120;2024-02-26T13:06:17;7.89;88.20
13713;DHT22;6928;50.546;7.120;2024-02-26T13:08:46;7.81;88.35
13713;DHT22;6928;50.546;7.120;2024-02-26T13:11:13;7.88;89.13
13713;DHT22;6928;50.546;7.120;2024-02-26T13:13:40;7.83;88.06
13713;DHT22;6928;50.546;7.120;2024-02-26T13:16:15;7.86;88.43
13713;DHT22;6928;50.546;7.120;2024-02-26T13:18:42;7.88;89.23
13713;DHT22;6928;50.546;7.120;2024-02-26T13:21:11;7.90;88.13
13713;DHT22;6928;50.546;7.120;2024-02-26T13:23:39;7.92;88.06
13713;DHT22;6928;50.546;7.120;2024-02-26T13:26:11;7.89;88.04
13713;DHT22;6928;50.546;7.120;2024-02-26T13:28:38;7.98;88.24
13713;DHT22;6928;50.546;7.120;2024-02-26T13:31:05;8.03;88.26
13713;DHT22;6928;50.546;7.120;2024-02-26T13:33:33;8.00;88.31
13713;DHT22;6928;50.546;7.120;2024-02-26T13:36:01;8.05;88.43
13713;DHT22;6928;50.546;7.120;2024-02-26T13:38:29;7.98;89.21
13713;DHT22;6928;50.546;7.120;2024-02-26T13:40:55;7.95;88.71
13713;DHT22;6928;50.546;7.120;2024-02-26T13:43:23;8.06;88.32
13713;DHT22;6928;50.546;7.120;2024-02-26T13:45:50;8.10;87.98
13713;DHT22;6928;50.546;7.120;2024-02-26T13:48:17;7.95;87.60
13713;DHT22;6928;50.546;7.120;2024-02-26T13:50:44;8.09;88.51
13713;DHT22;6928;50.546;7.120;2024-02-26T13:53:12;8.12;88.51
13713;DHT22;6928;50.546;7.120;2024-02-26T13:55:40;8.13;89.15
13713;DHT22;6928;50.546;7.120;2024-02-26T13:58:09;8.06;88.75
13713;DHT22;6928;50.546;7.120;2024-02-26T14:00:39;8.03;89.15
13713;DHT22;6928;50.546;7.120;2024-02-26T14:03:07;8.06;89.53
13713;DHT22;6928;50.546;7.120;2024-02-26T14:05:34;8.03;89.20
13713;DHT22;6928;50.546;7.120;2024-02-26T14:08:02;7.83;89.66
13713;DHT22;6928;50.546;7.120;2024-02-26T14:10:28;8.03;89.97
13713;DHT22;6928;50.546;7.120;2024-02-26T14:12:57;7.92;90.62
13713;DHT22;6928;50.546;7.120;2024-02-26T14:15:24;8.03;90.51
13713;DHT22;6928;50.546;7.120;2024-02-26T14:17:52;8.07;90.21
13713;DHT22;6928;50.546;7.120;2024-02-26T14:20:22;7.99;90.56
13713;DHT22;6928;50.546;7.120;2024-02-26T14:22:49;7.92;90.32
13713;DHT22;6928;50.546;7.120;2024-02-26T14:25:17;7.96;90.66
13713;DHT22;6928;50.546;7.120;2024-02-26T14:27:45;8.00;91.30
13713;DHT22;6928;50.546;7.120;2024-02-26T14:30:12;8.06;90.62
13713;DHT22;6928;50.546;7.120;2024-02-26T14:32:39;8.07;90.72
13713;DHT22;6928;50.546;7.120;2024-02-26T14:35:08;7.90;91.06
13713;DHT22;6928;50.546;7.120;2024-02-26T14:37:35;7.96;92.07
13713;DHT22;6928;50.546;7.120;2024-02-26T14:40:03;8.07;91.32
13713;DHT22;6928;50.546;7.120;2024-02-26T14:42:31;8.12;91.35
13713;DHT22;6928;50.546;7.120;2024-02-26T14:44:58;8.10;90.99
13713;DHT22;6928;50.546;7.120;2024-02-26T14:47:25;8.13;90.82
13713;DHT22;6928;50.546;7.120;2024-02-26T14:49:52;8.10;90.79
13713;DHT22;6928;50.546;7.120;2024-02-26T14:52:20;8.17;90.75
13713;DHT22;6928;50.546;7.120;2024-02-26T14:54:48;8.23;90.98
13713;DHT22;6928;50.546;7.120;2024-02-26T14:57:16;8.26;90.62
13713;DHT22;6928;50.546;7.120;2024-02-26T14:59:43;8.22;91.21
13713;DHT22;6928;50.546;7.120;2024-02-26T15:02:10;8.36;90.60
13713;DHT22;6928;50.546;7.120;2024-02-26T15:04:37;8.29;90.53
13713;DHT22;6928;50.546;7.120;2024-02-26T15:07:04;8.29;90.25
13713;DHT22;6928;50.546;7.120;2024-02-26T15:09:32;8.32;90.18
13713;DHT22;6928;50.546;7.120;2024-02-26T15:12:00;8.29;90.51
13713;DHT22;6928;50.546;7.120;2024-02-26T15:14:28;8.26;90.54
13713;DHT22;6928;50.546;7.120;2024-02-26T15:16:55;8.26;90.77
13713;DHT22;6928;50.546;7.120;2024-02-26T15:19:21;8.14;91.15
13713;DHT22;6928;50.546;7.120;2024-02-26T15:21:49;8.16;91.07
13713;DHT22;6928;50.546;7.120;2024-02-26T15:24:16;8.14;91.14
13713;DHT22;6928;50.546;7.120;2024-02-26T15:26:44;8.10;91.38
13713;DHT22;6928;50.546;7.120;2024-02-26T15:29:11;8.07;91.45
13713;DHT22;6928;50.546;7.120;2024-02-26T15:31:38;8.12;91.55
13713;DHT22;6928;50.546;7.120;2024-02-26T15:34:05;8.07;91.79
13713;DHT22;6928;50.546;7.120;2024-02-26T15:36:33;8.16;91.77
13713;DHT22;6928;50.546;7.120;2024-02-26T15:39:00;8.13;91.75
13713;DHT22;6928;50.546;7.120;2024-02-26T15:41:27;8.17;91.73
13713;DHT22;6928;50.546;7.120;2024-02-26T15:43:56;8.09;91.90
13713;DHT22;6928;50.546;7.120;2024-02-26T15:46:23;8.07;92.12
13713;DHT22;6928;50.546;7.120;2024-02-26T15:48:50;8.06;92.32
13713;DHT22;6928;50.546;7.120;2024-02-26T15:51:21;8.07;92.27
13713;DHT22;6928;50.546;7.120;2024-02-26T15:53:49;8.20;91.67
13713;DHT22;6928;50.546;7.120;2024-02-26T15:56:18;8.13;92.06
13713;DHT22;6928;50.546;7.120;2024-02-26T15:58:50;8.10;92.34
13713;DHT22;6928;50.546;7.120;2024-02-26T16:01:21;8.12;92.17
13713;DHT22;6928;50.546;7.120;2024-02-26T16:03:48;8.12;92.42
13713;DHT22;6928;50.546;7.120;2024-02-26T16:06:20;8.13;91.74
13713;DHT22;6928;50.546;7.120;2024-02-26T16:08:48;8.16;91.83
13713;DHT22;6928;50.546;7.120;2024-02-26T16:11:16;8.09;91.68
13713;DHT22;6928;50.546;7.120;2024-02-26T16:13:44;8.12;91.55
13713;DHT22;6928;50.546;7.120;2024-02-26T16:16:20;8.12;91.43
13713;DHT22;6928;50.546;7.120;2024-02-26T16:18:47;8.13;91.70
13713;DHT22;6928;50.546;7.120;2024-02-26T16:21:15;8.09;91.76
13713;DHT22;6928;50.546;7.120;2024-02-26T16:23:41;8.12;92.05
13713;DHT22;6928;50.546;7.120;2024-02-26T16:26:08;8.09;91.76
13713;DHT22;6928;50.546;7.120;2024-02-26T16:28:35;8.13;91.79
13713;DHT22;6928;50.546;7.120;2024-02-26T16:31:02;8.07;92.06
13713;DHT22;6928;50.546;7.120;2024-02-26T16:33:30;8.16;91.65
13713;DHT22;6928;50.546;7.120;2024-02-26T16:35:57;8.12;91.29
13713;DHT22;6928;50.546;7.120;2024-02-26T16:38:24;8.06;91.41
13713;DHT22;6928;50.546;7.120;2024-02-26T16:40:50;8.05;91.44
13713;DHT22;6928;50.546;7.120;2024-02-26T16:43:17;8.07;91.31
13713;DHT22;6928;50.546;7.120;2024-02-26T16:45:44;8.05;91.25
13713;DHT22;6928;50.546;7.120;2024-02-26T16:48:10;8.07;90.99
13713;DHT22;6928;50.546;7.120;2024-02-26T16:50:39;8.06;91.44
13713;DHT22;6928;50.546;7.120;2024-02-26T16:53:05;7.99;91.40
13713;DHT22;6928;50.546;7.120;2024-02-26T16:55:33;7.95;91.66
13713;DHT22;6928;50.546;7.120;2024-02-26T16:57:59;7.95;91.56
13713;DHT22;6928;50.546;7.120;2024-02-26T17:00:27;7.89;91.49
13713;DHT22;6928;50.546;7.120;2024-02-26T17:02:54;7.89;91.52
13713;DHT22;6928;50.546;7.120;2024-02-26T17:05:22;7.85;91.21
13713;DHT22;6928;50.546;7.120;2024-02-26T17:07:50;7.89;91.24
13713;DHT22;6928;50.546;7.120;2024-02-26T17:10:18;7.99;90.98
13713;DHT22;6928;50.546;7.120;2024-02-26T17:12:45;7.98;90.98
13713;DHT22;6928;50.546;7.120;2024-02-26T17:15:12;7.93;90.93
13713;DHT22;6928;50.546;7.120;2024-02-26T17:17:38;7.92;90.86
13713;DHT22;6928;50.546;7.120;2024-02-26T17:20:07;7.95;90.93
13713;DHT22;6928;50.546;7.120;2024-02-26T17:22:34;7.93;90.97
13713;DHT22;6928;50.546;7.120;2024-02-26T17:25:03;7.92;91.04
13713;DHT22;6928;50.546;7.120;2024-02-26T17:27:30;7.90;91.12
13713;DHT22;6928;50.546;7.120;2024-02-26T17:29:57;7.88;91.10
13713;DHT22;6928;50.546;7.120;2024-02-26T17:32:24;7.88;91.03
13713;DHT22;6928;50.546;7.120;2024-02-26T17:34:51;7.89;90.91
13713;DHT22;6928;50.546;7.120;2024-02-26T17:37:18;7.78;91.59
13713;DHT22;6928;50.546;7.120;2024-02-26T17:39:45;7.89;91.02
13713;DHT22;6928;50.546;7.120;2024-02-26T17:42:13;7.82;91.60
13713;DHT22;6928;50.546;7.120;2024-02-26T17:44:41;7.88;90.55
13713;DHT22;6928;50.546;7.120;2024-02-26T17:47:09;7.78;91.83
13713;DHT22;6928;50.546;7.120;2024-02-26T17:49:38;7.88;91.62
13713;DHT22;6928;50.546;7.120;2024-02-26T17:52:06;7.76;91.06
13713;DHT22;6928;50.546;7.120;2024-02-26T17:54:34;7.75;91.37
13713;DHT22;6928;50.546;7.120;2024-02-26T17:57:01;7.52;91.75
13713;DHT22;6928;50.546;7.120;2024-02-26T17:59:29;7.61;91.18
13713;DHT22;6928;50.546;7.120;2024-02-26T18:01:57;7.76;90.80
13713;DHT22;6928;50.546;7.120;2024-02-26T18:04:24;7.76;90.23
13713;DHT22;6928;50.546;7.120;2024-02-26T18:06:51;7.78;91.22
13713;DHT22;6928;50.546;7.120;2024-02-26T18:09:18;7.67;90.91
13713;DHT22;6928;50.546;7.120;2024-02-26T18:11:45;7.76;90.10
13713;DHT22;6928;50.546;7.120;2024-02-26T18:14:12;7.71;90.67
13713;DHT22;6928;50.546;7.120;2024-02-26T18:16:41;7.81;90.50
13713;DHT22;6928;50.546;7.120;2024-02-26T18:19:08;7.74;90.10
13713;DHT22;6928;50.546;7.120;2024-02-26T18:21:35;7.74;90.26
13713;DHT22;6928;50.546;7.120;2024-02-26T18:24:02;7.68;91.01
13713;DHT22;6928;50.546;7.120;2024-02-26T18:26:29;7.65;90.97
13713;DHT22;6928;50.546;7.120;2024-02-26T18:28:56;7.68;91.28
13713;DHT22;6928;50.546;7.120;2024-02-26T18:31:23;7.57;91.57
13713;DHT22;6928;50.546;7.120;2024-02-26T18:33:51;7.67;91.23
13713;DHT22;6928;50.546;7.120;2024-02-26T18:36:18;7.62;91.66
13713;DHT22;6928;50.546;7.120;2024-02-26T18:38:48;7.61;91.04
13713;DHT22;6928;50.546;7.120;2024-02-26T18:41:18;7.67;90.82
13713;DHT22;6928;50.546;7.120;2024-02-26T18:43:46;7.65;90.95
13713;DHT22;6928;50.546;7.120;2024-02-26T18:46:14;7.75;90.96
13713;DHT22;6928;50.546;7.120;2024-02-26T18:48:41;7.72;90.49
13713;DHT22;6928;50.546;7.120;2024-02-26T18:51:10;7.68;90.11
13713;DHT22;6928;50.546;7.120;2024-02-26T18:53:37;7.72;90.36
13713;DHT22;6928;50.546;7.120;2024-02-26T18:56:06;7.57;91.45
13713;DHT22;6928;50.546;7.120;2024-02-26T18:58:33;7.72;91.04
13713;DHT22;6928;50.546;7.120;2024-02-26T19:01:00;7.72;90.38
13713;DHT22;6928;50.546;7.120;2024-02-26T19:03:27;7.71;90.53
13713;DHT22;6928;50.546;7.120;2024-02-26T19:05:54;7.65;91.25
13713;DHT22;6928;50.546;7.120;2024-02-26T19:08:23;7.67;91.40
13713;DHT22;6928;50.546;7.120;2024-02-26T19:10:50;7.71;90.51
13713;DHT22;6928;50.546;7.120;2024-02-26T19:13:17;7.68;90.67
13713;DHT22;6928;50.546;7.120;2024-02-26T19:15:44;7.62;91.21
13713;DHT22;6928;50.546;7.120;2024-02-26T19:18:11;7.65;90.31
13713;DHT22;6928;50.546;7.120;2024-02-26T19:20:38;7.68;90.87
13713;DHT22;6928;50.546;7.120;2024-02-26T19:23:07;7.71;90.97
13713;DHT22;6928;50.546;7.120;2024-02-26T19:25:36;7.67;91.46
13713;DHT22;6928;50.546;7.120;2024-02-26T19:28:05;7.67;91.11
13713;DHT22;6928;50.546;7.120;2024-02-26T19:30:32;7.59;91.80
13713;DHT22;6928;50.546;7.120;2024-02-26T19:32:59;7.54;91.78
13713;DHT22;6928;50.546;7.120;2024-02-26T19:35:25;7.71;91.52
13713;DHT22;6928;50.546;7.120;2024-02-26T19:37:52;7.67;90.98
13713;DHT22;6928;50.546;7.120;2024-02-26T19:40:19;7.68;91.09
13713;DHT22;6928;50.546;7.120;2024-02-26T19:42:49;7.51;91.69
13713;DHT22;6928;50.546;7.120;2024-02-26T19:45:16;7.50;92.45
13713;DHT22;6928;50.546;7.120;2024-02-26T19:47:43;7.68;91.50
13713;DHT22;6928;50.546;7.120;2024-02-26T19:50:12;7.59;91.39
13713;DHT22;6928;50.546;7.120;2024-02-26T19:52:39;7.69;91.52
13713;DHT22;6928;50.546;7.120;2024-02-26T19:55:07;7.50;91.06
13713;DHT22;6928;50.546;7.120;2024-02-26T19:57:35;7.55;91.35
13713;DHT22;6928;50.546;7.120;2024-02-26T20:00:05;7.65;91.16
13713;DHT22;6928;50.546;7.120;2024-02-26T20:02:32;7.64;91.29
13713;DHT22;6928;50.546;7.120;2024-02-26T20:05:00;7.61;91.19
13713;DHT22;6928;50.546;7.120;2024-02-26T20:07:27;7.64;91.53
13713;DHT22;6928;50.546;7.120;2024-02-26T20:09:54;7.72;91.15
13713;DHT22;6928;50.546;7.120;2024-02-26T20:12:23;7.62;90.78
13713;DHT22;6928;50.546;7.120;2024-02-26T20:14:50;7.68;91.51
13713;DHT22;6928;50.546;7.120;2024-02-26T20:17:18;7.64;91.13
13713;DHT22;6928;50.546;7.120;2024-02-26T20:19:46;7.59;91.15
13713;DHT22;6928;50.546;7.120;2024-02-26T20:22:13;7.61;91.16
13713;DHT22;6928;50.546;7.120;2024-02-26T20:24:40;7.67;91.36
13713;DHT22;6928;50.546;7.120;2024-02-26T20:27:09;7.58;90.86
13713;DHT22;6928;50.546;7.120;2024-02-26T20:29:37;7.43;91.24
13713;DHT22;6928;50.546;7.120;2024-02-26T20:32:04;7.68;91.13
13713;DHT22;6928;50.546;7.120;2024-02-26T20:34:33;7.61;90.81
13713;DHT22;6928;50.546;7.120;2024-02-26T20:37:00;7.51;91.24
13713;DHT22;6928;50.546;7.120;2024-02-26T20:39:27;7.58;91.03
13713;DHT22;6928;50.546;7.120;2024-02-26T20:41:55;7.59;91.21
13713;DHT22;6928;50.546;7.120;2024-02-26T20:44:22;7.51;90.82
13713;DHT22;6928;50.546;7.120;2024-02-26T20:46:49;7.44;91.02
13713;DHT22;6928;50.546;7.120;2024-02-26T20:49:17;7.58;90.63
13713;DHT22;6928;50.546;7.120;2024-02-26T20:51:46;7.47;90.58
13713;DHT22;6928;50.546;7.120;2024-02-26T20:54:15;7.38;91.01
13713;DHT22;6928;50.546;7.120;2024-02-26T20:56:43;7.64;90.42
13713;DHT22;6928;50.546;7.120;2024-02-26T20:59:10;7.45;90.60
13713;DHT22;6928;50.546;7.120;2024-02-26T21:01:37;7.54;90.26
13713;DHT22;6928;50.546;7.120;2024-02-26T21:04:05;7.57;90.05
13713;DHT22;6928;50.546;7.120;2024-02-26T21:06:31;7.48;90.57
13713;DHT22;6928;50.546;7.120;2024-02-26T21:09:00;7.64;90.21
13713;DHT22;6928;50.546;7.120;2024-02-26T21:11:27;7.51;90.51
13713;DHT22;6928;50.546;7.120;2024-02-26T21:13:54;7.50;90.63
13713;DHT22;6928;50.546;7.120;2024-02-26T21:16:20;7.48;89.59
13713;DHT22;6928;50.546;7.120;2024-02-26T21:18:47;7.45;90.42
13713;DHT22;6928;50.546;7.120;2024-02-26T21:21:14;7.48;89.99
13713;DHT22;6928;50.546;7.120;2024-02-26T21:23:43;7.45;89.86
13713;DHT22;6928;50.546;7.120;2024-02-26T21:26:14;7.45;89.67
13713;DHT22;6928;50.546;7.120;2024-02-26T21:28:41;7.41;89.20
13713;DHT22;6928;50.546;7.120;2024-02-26T21:31:09;7.51;89.46
13713;DHT22;6928;50.546;7.120;2024-02-26T21:33:36;7.52;89.54
13713;DHT22;6928;50.546;7.120;2024-02-26T21:36:03;7.43;89.44
13713;DHT22;6928;50.546;7.120;2024-02-26T21:38:30;7.45;88.80
13713;DHT22;6928;50.546;7.120;2024-02-26T21:40:57;7.50;89.15
13713;DHT22;6928;50.546;7.120;2024-02-26T21:43:25;7.40;89.77
13713;DHT22;6928;50.546;7.120;2024-02-26T21:45:52;7.51;89.28
13713;DHT22;6928;50.546;7.120;2024-02-26T21:48:19;7.52;88.54
13713;DHT22;6928;50.546;7.120;2024-02-26T21:50:46;7.50;88.57
13713;DHT22;6928;50.546;7.120;2024-02-26T21:53:13;7.43;88.31
13713;DHT22;6928;50.546;7.120;2024-02-26T21:55:40;7.41;88.44
13713;DHT22;6928;50.546;7.120;2024-02-26T21:58:07;7.34;88.38
13713;DHT22;6928;50.546;7.120;2024-02-26T22:00:35;7.40;89.29
13713;DHT22;6928;50.546;7.120;2024-02-26T22:03:02;7.32;89.10
13713;DHT22;6928;50.546;7.120;2024-02-26T22:05:29;7.35;89.39
13713;DHT22;6928;50.546;7.120;2024-02-26T22:07:56;7.31;88.50
13713;DHT22;6928;50.546;7.120;2024-02-26T22:10:23;7.32;88.54